Time;durP1;ratioP1;P1;durP2;ratioP2;P2;SDS_P1;SDS_P2;PMS_P1;PMS_P2;Temp;Humidity;BMP_temperature;BMP_pressure;BME280_temperature;BME280_humidity;BME280_pressure;Samples;Min_cycle;Max_cycle;Signal;HPM_P1;HPM_P2
2022/01/22 00:00:13;;;;;;;16.27;3.45;;;;;;;;;;4990427;28;20412;-69
2022/01/22 00:02:41;;;;;;;33.53;4.28;;;;;;;;;;4991786;28;20095;-69
2022/01/22 00:05:08;;;;;;;17.55;3.88;;;;;;;;;;4989945;28;20042;-69
2022/01/22 00:07:33;;;;;;;26.48;4.97;;;;;;;;;;4989765;28;20037;-69
2022/01/22 00:10:07;;;;;;;25.60;4.70;;;;;;;;;;4989590;28;20559;-69
2022/01/22 00:15:01;;;;;;;24.85;5.10;;;;;;;;;;4989367;28;20535;-68
2022/01/22 00:17:29;;;;;;;22.88;4.10;;;;;;;;;;4994193;28;20038;-68
2022/01/22 00:19:56;;;;;;;19.15;4.03;;;;;;;;;;4989340;28;20030;-69
2022/01/22 00:22:26;;;;;;;28.40;5.40;;;;;;;;;;4990725;28;20053;-68
2022/01/22 00:24:56;;;;;;;24.48;5.00;;;;;;;;;;4990102;28;20072;-68
2022/01/22 00:27:24;;;;;;;25.90;3.38;;;;;;;;;;4990619;28;20029;-70
2022/01/22 00:29:50;;;;;;;23.35;3.05;;;;;;;;;;4977613;28;20151;-68
2022/01/22 00:32:17;;;;;;;29.15;4.25;;;;;;;;;;4989979;28;20120;-69
2022/01/22 00:34:45;;;;;;;29.40;3.80;;;;;;;;;;4967537;28;20825;-68
2022/01/22 00:37:11;;;;;;;21.15;2.85;;;;;;;;;;4988131;28;20251;-68
2022/01/22 00:39:36;;;;;;;33.10;4.28;;;;;;;;;;5004405;28;20038;-69
2022/01/22 00:42:08;;;;;;;28.55;3.58;;;;;;;;;;4993608;28;20033;-68
2022/01/22 00:44:33;;;;;;;23.05;3.55;;;;;;;;;;4988829;28;20067;-69
2022/01/22 00:47:00;;;;;;;33.08;5.13;;;;;;;;;;4989163;28;20037;-69
2022/01/22 00:49:26;;;;;;;31.73;4.25;;;;;;;;;;4989486;28;20062;-68
2022/01/22 00:51:53;;;;;;;30.50;4.43;;;;;;;;;;4988813;28;20112;-68
2022/01/22 00:54:18;;;;;;;30.65;4.63;;;;;;;;;;4992707;28;20028;-69
2022/01/22 00:56:44;;;;;;;28.77;4.72;;;;;;;;;;4989637;28;20022;-69
2022/01/22 00:59:09;;;;;;;33.83;3.80;;;;;;;;;;4987452;28;20057;-69
2022/01/22 01:01:34;;;;;;;33.90;4.18;;;;;;;;;;4988761;28;20647;-68
2022/01/22 01:04:03;;;;;;;28.98;5.03;;;;;;;;;;4988751;28;20029;-69
2022/01/22 01:06:28;;;;;;;45.35;7.70;;;;;;;;;;4992902;28;20072;-69
2022/01/22 01:08:55;;;;;;;37.63;6.13;;;;;;;;;;4988428;28;20100;-69
2022/01/22 01:11:25;;;;;;;26.73;4.63;;;;;;;;;;5004030;28;20037;-68
2022/01/22 01:13:58;;;;;;;29.33;3.75;;;;;;;;;;4992710;28;20129;-69
2022/01/22 01:16:55;;;;;;;;;;;;;;;;;;4989420;28;20070;-69
2022/01/22 01:33:09;;;;;;;27.85;4.05;;;;;;;;;;5003439;28;20165;-68
2022/01/22 01:35:38;;;;;;;23.83;3.45;;;;;;;;;;5001181;28;20129;-69
2022/01/22 01:38:07;;;;;;;25.73;3.90;;;;;;;;;;4988666;28;20521;-68
2022/01/22 01:40:35;;;;;;;34.50;3.35;;;;;;;;;;4988263;28;20033;-68
2022/01/22 01:45:28;;;;;;;33.75;5.25;;;;;;;;;;5002726;28;20155;-69
2022/01/22 01:47:55;;;;;;;28.83;4.82;;;;;;;;;;5002387;28;20034;-68
2022/01/22 01:50:21;;;;;;;31.50;4.22;;;;;;;;;;4975128;28;20045;-68
2022/01/22 01:52:52;;;;;;;26.95;5.03;;;;;;;;;;4986334;28;20038;-68
2022/01/22 01:55:22;;;;;;;25.42;4.38;;;;;;;;;;4988244;28;20112;-69
2022/01/22 01:57:48;;;;;;;33.08;3.58;;;;;;;;;;4988121;28;20056;-68
2022/01/22 02:00:19;;;;;;;28.30;3.65;;;;;;;;;;5002642;28;20073;-69
2022/01/22 02:02:46;;;;;;;38.63;3.97;;;;;;;;;;4975549;28;20025;-69
2022/01/22 02:05:12;;;;;;;24.38;3.75;;;;;;;;;;4975879;28;20037;-68
2022/01/22 02:07:40;;;;;;;24.45;4.03;;;;;;;;;;4991940;28;20124;-69
2022/01/22 02:10:07;;;;;;;21.30;3.70;;;;;;;;;;4987406;28;20041;-69
2022/01/22 02:23:46;;;;;;;30.65;3.65;;;;;;;;;;4987515;28;20069;-68
2022/01/22 02:26:12;;;;;;;38.35;4.50;;;;;;;;;;4987702;28;20029;-68
2022/01/22 02:28:39;;;;;;;30.40;4.30;;;;;;;;;;4987056;28;20124;-69
2022/01/22 02:31:15;;;;;;;23.98;3.85;;;;;;;;;;4991547;28;20089;-69
2022/01/22 02:34:06;;;;;;;25.58;4.15;;;;;;;;;;4987127;28;20316;-69
2022/01/22 02:36:40;;;;;;;25.25;3.72;;;;;;;;;;4988144;28;20142;-69
2022/01/22 02:39:14;;;;;;;36.45;3.78;;;;;;;;;;5002383;28;20049;-68
2022/01/22 02:41:46;;;;;;;23.40;2.90;;;;;;;;;;4986557;28;20034;-69
2022/01/22 02:44:14;;;;;;;20.08;3.15;;;;;;;;;;4989140;28;20029;-68
2022/01/22 02:46:43;;;;;;;26.30;3.05;;;;;;;;;;4987054;28;20243;-70
2022/01/22 02:49:08;;;;;;;26.20;3.58;;;;;;;;;;4987248;28;20364;-68
2022/01/22 02:51:34;;;;;;;23.40;3.38;;;;;;;;;;4987252;28;20049;-67
2022/01/22 02:54:00;;;;;;;26.25;3.60;;;;;;;;;;5001596;28;20038;-69
2022/01/22 02:56:26;;;;;;;18.52;2.40;;;;;;;;;;4987229;28;20053;-69
2022/01/22 02:58:53;;;;;;;24.60;3.05;;;;;;;;;;4991082;28;20038;-69
2022/01/22 03:01:18;;;;;;;21.67;2.90;;;;;;;;;;5001481;28;20034;-68
2022/01/22 03:03:44;;;;;;;28.45;2.67;;;;;;;;;;4990056;28;20099;-69
2022/01/22 03:06:11;;;;;;;29.60;3.50;;;;;;;;;;4987608;28;20062;-68
2022/01/22 03:08:39;;;;;;;17.55;3.10;;;;;;;;;;4987415;28;20465;-68
2022/01/22 03:11:16;;;;;;;19.10;2.58;;;;;;;;;;5001188;28;20037;-69
2022/01/22 03:19:07;;;;;;;18.27;2.90;;;;;;;;;;4986195;28;20297;-69
2022/01/22 03:21:42;;;;;;;16.95;2.10;;;;;;;;;;4987410;28;20065;-69
2022/01/22 03:29:43;;;;;;;23.27;2.65;;;;;;;;;;4986943;28;20080;-69
2022/01/22 03:32:11;;;;;;;18.95;2.60;;;;;;;;;;4986942;28;20026;-68
2022/01/22 03:34:43;;;;;;;18.05;3.22;;;;;;;;;;4987263;28;20033;-69
2022/01/22 03:37:08;;;;;;;32.97;4.30;;;;;;;;;;4987077;28;20469;-69
2022/01/22 03:39:34;;;;;;;20.30;3.15;;;;;;;;;;4971382;28;20038;-68
2022/01/22 03:41:59;;;;;;;24.00;3.50;;;;;;;;;;4989884;28;20026;-68
2022/01/22 03:44:25;;;;;;;25.27;3.70;;;;;;;;;;5001417;28;20413;-68
2022/01/22 03:46:50;;;;;;;19.60;3.13;;;;;;;;;;4987147;28;20121;-69
2022/01/22 03:49:16;;;;;;;25.88;3.40;;;;;;;;;;4986898;28;20030;-69
2022/01/22 03:51:43;;;;;;;35.10;4.35;;;;;;;;;;4986379;28;20609;-69
2022/01/22 03:54:08;;;;;;;27.88;3.42;;;;;;;;;;4987231;28;20053;-69
2022/01/22 03:56:34;;;;;;;20.98;3.05;;;;;;;;;;4990861;28;20022;-69
2022/01/22 03:59:02;;;;;;;22.80;3.38;;;;;;;;;;4986740;28;20026;-69
2022/01/22 04:04:12;;;;;;;30.55;2.72;;;;;;;;;;5000385;28;20034;-69
2022/01/22 04:07:44;;;;;;;26.52;3.25;;;;;;;;;;4986334;28;20127;-69
2022/01/22 04:09:31;;;;;;;40.80;4.47;;;;;;;;;;4986327;28;20033;-69
2022/01/22 04:11:58;;;;;;;27.85;3.92;;;;;;;;;;4987849;28;20018;-68
2022/01/22 04:14:31;;;;;;;24.60;3.08;;;;;;;;;;4989204;28;20077;-68
2022/01/22 04:24:57;;;;;;;32.17;4.05;;;;;;;;;;4989785;28;20394;-69
2022/01/22 04:27:27;;;;;;;24.15;3.28;;;;;;;;;;4990408;28;20034;-69
2022/01/22 04:29:57;;;;;;;32.85;3.05;;;;;;;;;;4993995;28;20427;-70
2022/01/22 04:32:23;;;;;;;25.05;3.47;;;;;;;;;;4994591;28;20026;-69
2022/01/22 04:34:49;;;;;;;31.25;4.00;;;;;;;;;;4988476;28;20060;-69
2022/01/22 04:37:14;;;;;;;32.67;3.33;;;;;;;;;;5004808;28;20116;-69
2022/01/22 04:39:40;;;;;;;25.38;3.83;;;;;;;;;;4993251;28;20033;-67
2022/01/22 04:42:06;;;;;;;34.10;3.88;;;;;;;;;;4989382;28;20130;-69
2022/01/22 04:44:37;;;;;;;34.60;3.45;;;;;;;;;;4988866;28;20677;-68
2022/01/22 04:57:25;;;;;;;33.33;3.90;;;;;;;;;;4988666;28;20068;-69
2022/01/22 04:59:50;;;;;;;24.58;2.95;;;;;;;;;;4989652;28;20132;-69
2022/01/22 05:02:16;;;;;;;25.30;3.10;;;;;;;;;;4990458;28;20143;-69
2022/01/22 05:04:42;;;;;;;25.60;3.40;;;;;;;;;;4989056;28;20045;-69
2022/01/22 05:07:09;;;;;;;19.70;3.00;;;;;;;;;;4988994;28;20045;-68
2022/01/22 05:09:34;;;;;;;25.85;2.67;;;;;;;;;;4993263;28;20084;-70
2022/01/22 05:12:04;;;;;;;32.65;3.70;;;;;;;;;;4989308;28;20038;-69
2022/01/22 05:14:32;;;;;;;30.95;3.85;;;;;;;;;;4988840;28;20064;-69
2022/01/22 05:17:02;;;;;;;22.83;3.35;;;;;;;;;;5005034;28;20037;-69
2022/01/22 05:19:38;;;;;;;21.75;2.88;;;;;;;;;;4988857;28;20042;-68
2022/01/22 05:22:39;;;;;;;21.85;2.83;;;;;;;;;;5002883;28;20219;-68
2022/01/22 05:24:59;;;;;;;25.77;3.47;;;;;;;;;;4990435;28;20052;-68
2022/01/22 05:27:48;;;;;;;20.95;2.85;;;;;;;;;;4989123;28;20313;-69
2022/01/22 05:33:12;;;;;;;12.27;2.10;;;;;;;;;;4990863;28;20034;-69
2022/01/22 05:38:32;;;;;;;11.82;2.33;;;;;;;;;;4988568;28;20041;-69
2022/01/22 05:40:58;;;;;;;9.05;1.88;;;;;;;;;;5003150;28;20042;-69
2022/01/22 05:43:24;;;;;;;16.52;2.65;;;;;;;;;;4988484;28;20054;-68
2022/01/22 05:45:50;;;;;;;18.60;2.55;;;;;;;;;;4988637;28;20034;-68
2022/01/22 05:48:15;;;;;;;20.85;2.58;;;;;;;;;;4976050;28;20494;-68
2022/01/22 05:51:00;;;;;;;17.15;2.38;;;;;;;;;;5004068;28;20036;-68
2022/01/22 05:53:54;;;;;;;17.95;2.40;;;;;;;;;;4988313;28;20602;-69
2022/01/22 06:01:47;;;;;;;17.88;2.60;;;;;;;;;;4988355;28;20482;-68
2022/01/22 06:04:12;;;;;;;20.35;2.58;;;;;;;;;;4988770;28;20128;-68
2022/01/22 06:06:37;;;;;;;11.32;1.88;;;;;;;;;;4988425;28;20040;-69
2022/01/22 06:09:07;;;;;;;16.83;2.33;;;;;;;;;;4988530;28;20026;-68
2022/01/22 06:11:51;;;;;;;14.70;2.45;;;;;;;;;;4991119;28;20038;-69
2022/01/22 06:14:16;;;;;;;14.35;2.20;;;;;;;;;;4988353;28;20535;-69
2022/01/22 06:16:44;;;;;;;13.50;1.83;;;;;;;;;;4987585;28;20835;-69
2022/01/22 06:19:10;;;;;;;18.80;2.67;;;;;;;;;;4988108;28;20038;-69
2022/01/22 06:21:35;;;;;;;16.63;2.70;;;;;;;;;;4975615;28;20040;-69
2022/01/22 06:24:03;;;;;;;16.48;2.53;;;;;;;;;;4987130;28;20566;-69
2022/01/22 06:26:31;;;;;;;21.00;2.88;;;;;;;;;;5002534;28;20057;-69
2022/01/22 06:28:56;;;;;;;21.75;3.17;;;;;;;;;;4987113;28;20050;-69
2022/01/22 06:31:25;;;;;;;16.10;2.22;;;;;;;;;;4987866;28;20046;-68
2022/01/22 06:33:50;;;;;;;17.38;3.08;;;;;;;;;;4987242;28;20052;-70
2022/01/22 06:36:20;;;;;;;22.38;2.80;;;;;;;;;;4987599;28;20275;-69
2022/01/22 06:38:46;;;;;;;20.70;2.45;;;;;;;;;;5002256;28;20876;-69
2022/01/22 06:43:55;;;;;;;27.98;3.10;;;;;;;;;;4987258;28;20088;-68
2022/01/22 06:46:23;;;;;;;29.50;2.80;;;;;;;;;;4987706;28;20050;-68
2022/01/22 06:48:49;;;;;;;19.48;3.40;;;;;;;;;;5002472;28;20156;-69
2022/01/22 06:51:14;;;;;;;12.60;2.35;;;;;;;;;;4987951;28;20032;-70
2022/01/22 06:53:40;;;;;;;17.85;2.80;;;;;;;;;;5001824;28;20022;-69
2022/01/22 06:56:07;;;;;;;20.05;2.30;;;;;;;;;;4985974;28;20041;-69
2022/01/22 06:58:33;;;;;;;15.85;2.47;;;;;;;;;;4987284;28;20544;-68
2022/01/22 07:00:59;;;;;;;16.25;2.70;;;;;;;;;;4975520;28;20038;-68
2022/01/22 07:03:24;;;;;;;15.95;2.40;;;;;;;;;;4986153;28;20120;-69
2022/01/22 07:05:49;;;;;;;19.45;2.45;;;;;;;;;;4986794;28;20137;-68
2022/01/22 07:08:15;;;;;;;15.73;2.50;;;;;;;;;;4987312;28;20712;-68
2022/01/22 07:10:40;;;;;;;18.58;2.70;;;;;;;;;;5002319;28;20114;-69
2022/01/22 07:13:06;;;;;;;20.67;2.70;;;;;;;;;;4986874;28;20509;-69
2022/01/22 07:15:34;;;;;;;16.52;2.95;;;;;;;;;;4987575;28;20502;-69
2022/01/22 07:17:59;;;;;;;19.35;3.53;;;;;;;;;;4991952;28;20046;-69
2022/01/22 07:20:30;;;;;;;17.35;2.40;;;;;;;;;;4986806;28;20710;-70
2022/01/22 07:25:24;;;;;;;21.05;2.58;;;;;;;;;;5001549;28;20038;-69
2022/01/22 07:27:52;;;;;;;19.60;2.95;;;;;;;;;;4987397;28;20025;-69
2022/01/22 07:30:20;;;;;;;15.55;3.00;;;;;;;;;;4987237;28;20119;-69
2022/01/22 07:32:45;;;;;;;21.40;3.60;;;;;;;;;;4991879;28;20042;-69
2022/01/22 07:35:18;;;;;;;18.40;2.40;;;;;;;;;;4987870;28;20037;-69
2022/01/22 07:37:45;;;;;;;17.30;3.05;;;;;;;;;;4987023;28;20088;-69
2022/01/22 07:40:11;;;;;;;27.52;2.90;;;;;;;;;;4986714;28;20026;-68
2022/01/22 07:42:37;;;;;;;13.75;3.00;;;;;;;;;;4987166;28;20389;-71
2022/01/22 07:45:04;;;;;;;20.15;3.17;;;;;;;;;;4987170;28;20044;-69
2022/01/22 07:47:29;;;;;;;16.83;3.15;;;;;;;;;;4978366;28;20481;-69
2022/01/22 07:49:54;;;;;;;22.02;3.33;;;;;;;;;;4990213;28;20032;-69
2022/01/22 07:52:23;;;;;;;26.50;3.83;;;;;;;;;;4990152;28;20120;-68
2022/01/22 07:54:50;;;;;;;16.23;3.80;;;;;;;;;;4990642;28;20127;-69
2022/01/22 07:57:15;;;;;;;13.45;3.10;;;;;;;;;;4991188;28;20087;-69
2022/01/22 07:59:40;;;;;;;15.93;3.65;;;;;;;;;;4990052;28;20425;-68
2022/01/22 08:02:08;;;;;;;25.60;4.10;;;;;;;;;;4989657;28;20327;-69
2022/01/22 08:04:34;;;;;;;18.02;3.22;;;;;;;;;;4989323;28;20049;-68
2022/01/22 08:07:02;;;;;;;13.35;3.22;;;;;;;;;;4990311;28;20152;-69
2022/01/22 08:09:27;;;;;;;21.33;3.40;;;;;;;;;;4990083;28;20040;-69
2022/01/22 08:11:53;;;;;;;14.63;3.60;;;;;;;;;;4989707;28;20029;-70
2022/01/22 08:14:18;;;;;;;19.85;2.90;;;;;;;;;;4978579;28;20037;-70
2022/01/22 08:16:46;;;;;;;20.10;3.45;;;;;;;;;;4990786;28;20107;-68
2022/01/22 08:19:12;;;;;;;19.42;3.80;;;;;;;;;;4990554;28;20057;-69
2022/01/22 08:21:37;;;;;;;17.50;3.30;;;;;;;;;;4989611;28;20413;-69
2022/01/22 08:24:03;;;;;;;17.92;3.17;;;;;;;;;;4994514;28;20037;-69
2022/01/22 08:26:33;;;;;;;17.20;3.65;;;;;;;;;;5004464;28;20222;-70
2022/01/22 08:29:00;;;;;;;14.20;3.35;;;;;;;;;;4966827;28;20068;-69
2022/01/22 08:36:43;;;;;;;13.52;3.03;;;;;;;;;;4989528;28;20569;-69
2022/01/22 08:39:09;;;;;;;12.25;3.28;;;;;;;;;;4989954;28;20026;-69
2022/01/22 08:41:35;;;;;;;12.30;3.47;;;;;;;;;;4990761;28;20045;-68
2022/01/22 08:44:00;;;;;;;13.63;3.35;;;;;;;;;;4989859;28;20026;-69
2022/01/22 08:46:28;;;;;;;12.48;3.63;;;;;;;;;;5004367;28;20300;-69
2022/01/22 08:48:54;;;;;;;11.93;3.47;;;;;;;;;;4988741;28;20184;-69
2022/01/22 08:51:19;;;;;;;20.63;3.28;;;;;;;;;;4989214;28;20034;-69
2022/01/22 08:53:46;;;;;;;15.65;3.05;;;;;;;;;;4990173;28;20109;-69
2022/01/22 08:56:12;;;;;;;15.18;2.80;;;;;;;;;;4978300;28;20033;-69
2022/01/22 08:58:37;;;;;;;18.65;4.32;;;;;;;;;;4987322;28;20466;-69
2022/01/22 09:01:03;;;;;;;18.15;3.17;;;;;;;;;;4990354;28;20247;-69
2022/01/22 09:03:32;;;;;;;19.00;3.20;;;;;;;;;;4988038;28;20037;-69
2022/01/22 09:05:57;;;;;;;18.58;4.10;;;;;;;;;;4989349;28;20034;-70
2022/01/22 09:08:24;;;;;;;20.10;3.63;;;;;;;;;;4989534;28;20045;-68
2022/01/22 09:10:50;;;;;;;21.13;3.65;;;;;;;;;;4993731;28;20556;-70
2022/01/22 09:13:18;;;;;;;11.25;3.30;;;;;;;;;;4988368;28;20151;-68
2022/01/22 09:15:44;;;;;;;15.50;3.13;;;;;;;;;;4988043;28;20301;-71
2022/01/22 09:18:10;;;;;;;29.58;3.88;;;;;;;;;;4988511;28;20037;-69
2022/01/22 09:23:05;;;;;;;20.60;3.30;;;;;;;;;;5003178;28;20559;-68
2022/01/22 09:25:30;;;;;;;21.65;3.20;;;;;;;;;;4988862;28;20476;-69
2022/01/22 09:27:56;;;;;;;16.15;3.63;;;;;;;;;;4980507;28;20133;-70
2022/01/22 09:30:22;;;;;;;20.15;3.25;;;;;;;;;;4980193;28;20081;-69
2022/01/22 09:32:47;;;;;;;18.80;3.10;;;;;;;;;;4979385;28;20173;-69
2022/01/22 09:35:15;;;;;;;14.82;2.42;;;;;;;;;;4979661;28;20321;-68
2022/01/22 09:37:40;;;;;;;12.50;2.88;;;;;;;;;;4980130;28;20133;-68
2022/01/22 09:40:06;;;;;;;11.80;2.60;;;;;;;;;;4980881;28;20040;-67
2022/01/22 09:42:32;;;;;;;16.58;3.60;;;;;;;;;;4979707;28;20096;-68
2022/01/22 09:44:57;;;;;;;22.70;3.83;;;;;;;;;;4979937;28;20030;-68
2022/01/22 09:47:23;;;;;;;16.17;3.15;;;;;;;;;;4980291;28;20049;-68
2022/01/22 09:49:48;;;;;;;15.93;2.75;;;;;;;;;;4974727;28;20038;-67
2022/01/22 09:52:14;;;;;;;21.88;4.03;;;;;;;;;;4995038;28;20022;-66
2022/01/22 09:54:40;;;;;;;18.92;3.00;;;;;;;;;;4964054;28;20446;-68
2022/01/22 09:57:06;;;;;;;15.93;3.00;;;;;;;;;;4979687;28;20034;-68
2022/01/22 09:59:32;;;;;;;18.15;3.15;;;;;;;;;;4995159;28;20460;-68
2022/01/22 10:02:27;;;;;;;16.58;3.30;;;;;;;;;;4979175;28;20038;-68
2022/01/22 10:04:53;;;;;;;18.60;3.20;;;;;;;;;;4978719;28;20169;-68
2022/01/22 10:07:21;;;;;;;15.27;3.17;;;;;;;;;;4979937;28;20022;-68
2022/01/22 10:10:06;;;;;;;21.08;3.35;;;;;;;;;;4974429;28;20225;-68
2022/01/22 10:12:52;;;;;;;17.88;4.25;;;;;;;;;;4979182;28;20069;-68
2022/01/22 10:15:19;;;;;;;16.67;2.92;;;;;;;;;;4979648;28;20768;-69
2022/01/22 10:17:45;;;;;;;19.33;3.00;;;;;;;;;;4979640;28;20021;-67
2022/01/22 10:20:31;;;;;;;14.00;2.92;;;;;;;;;;4978518;28;20054;-67
2022/01/22 10:22:58;;;;;;;17.00;4.47;;;;;;;;;;4979355;28;20060;-68
2022/01/22 10:25:27;;;;;;;9.27;2.40;;;;;;;;;;4979249;28;20058;-67
2022/01/22 10:27:59;;;;;;;15.50;2.80;;;;;;;;;;4974406;28;20992;-68
2022/01/22 10:30:34;;;;;;;13.32;2.95;;;;;;;;;;4936340;28;21977;-66
2022/01/22 10:33:11;;;;;;;13.48;3.15;;;;;;;;;;4950299;28;20126;-67
2022/01/22 10:35:36;;;;;;;16.63;3.38;;;;;;;;;;4935918;28;20042;-68
2022/01/22 10:38:03;;;;;;;12.68;2.83;;;;;;;;;;4951163;28;20042;-68
2022/01/22 10:40:32;;;;;;;18.40;3.65;;;;;;;;;;4936396;28;20365;-68
2022/01/22 10:43:17;;;;;;;13.02;2.88;;;;;;;;;;4950002;28;20035;-67
2022/01/22 10:46:04;;;;;;;20.42;3.53;;;;;;;;;;4935699;28;20050;-68
2022/01/22 10:48:30;;;;;;;17.38;3.13;;;;;;;;;;4936004;28;20046;-68
2022/01/22 10:51:00;;;;;;;25.63;4.10;;;;;;;;;;4936005;28;20035;-68
2022/01/22 10:53:43;;;;;;;17.67;3.40;;;;;;;;;;4935643;28;20095;-68
2022/01/22 10:56:09;;;;;;;20.08;3.55;;;;;;;;;;4950723;28;20227;-68
2022/01/22 10:58:47;;;;;;;18.60;3.28;;;;;;;;;;4935575;28;20043;-70
2022/01/22 11:01:13;;;;;;;18.67;3.20;;;;;;;;;;4936026;28;20426;-69
2022/01/22 11:03:39;;;;;;;16.80;2.92;;;;;;;;;;4933569;28;20067;-69
2022/01/22 11:06:08;;;;;;;17.02;3.17;;;;;;;;;;4936092;28;20051;-69
2022/01/22 11:08:36;;;;;;;19.15;3.80;;;;;;;;;;4939824;28;20046;-70
2022/01/22 11:11:04;;;;;;;16.40;3.05;;;;;;;;;;4936494;28;20053;-69
2022/01/22 11:13:32;;;;;;;19.90;3.58;;;;;;;;;;4941101;28;20031;-69
2022/01/22 11:15:57;;;;;;;14.95;3.50;;;;;;;;;;4935695;28;20069;-69
2022/01/22 11:18:23;;;;;;;14.82;3.53;;;;;;;;;;4935476;28;20035;-69
2022/01/22 11:20:52;;;;;;;12.85;3.20;;;;;;;;;;4935310;28;20577;-69
2022/01/22 11:23:17;;;;;;;19.13;3.35;;;;;;;;;;4939995;28;20042;-69
2022/01/22 11:25:42;;;;;;;17.23;3.83;;;;;;;;;;4939300;28;20027;-68
2022/01/22 11:28:08;;;;;;;14.45;3.25;;;;;;;;;;4943294;28;20134;-69
2022/01/22 11:30:35;;;;;;;17.83;4.20;;;;;;;;;;4989423;28;20406;-67
2022/01/22 11:33:03;;;;;;;18.23;4.40;;;;;;;;;;4991149;28;20045;-68
2022/01/22 11:35:32;;;;;;;18.23;3.95;;;;;;;;;;4990129;28;20022;-67
2022/01/22 11:38:09;;;;;;;16.10;3.47;;;;;;;;;;4991585;28;20030;-68
2022/01/22 11:40:34;;;;;;;14.45;3.67;;;;;;;;;;4990552;28;20124;-68
2022/01/22 11:43:05;;;;;;;17.55;4.72;;;;;;;;;;5005304;28;20359;-68
2022/01/22 11:45:33;;;;;;;21.48;4.38;;;;;;;;;;4995405;28;20025;-68
2022/01/22 11:48:15;;;;;;;21.10;4.80;;;;;;;;;;4990715;28;20034;-69
2022/01/22 11:50:41;;;;;;;17.75;4.15;;;;;;;;;;4991355;28;20100;-69
2022/01/22 11:53:26;;;;;;;18.73;4.10;;;;;;;;;;4990469;28;20026;-68
2022/01/22 11:56:09;;;;;;;18.48;4.93;;;;;;;;;;4978988;28;20431;-71
2022/01/22 11:58:54;;;;;;;19.13;4.43;;;;;;;;;;4990158;28;20545;-68
2022/01/22 12:01:41;;;;;;;19.60;4.18;;;;;;;;;;5005301;28;20029;-71
2022/01/22 12:04:08;;;;;;;18.88;4.57;;;;;;;;;;4987652;28;20463;-69
2022/01/22 12:06:35;;;;;;;18.95;4.40;;;;;;;;;;4994703;28;20033;-68
2022/01/22 12:09:14;;;;;;;26.58;4.05;;;;;;;;;;4989881;28;20018;-69
2022/01/22 12:14:44;;;;;;;13.68;3.50;;;;;;;;;;4989892;28;20088;-68
2022/01/22 12:17:14;;;;;;;26.50;3.55;;;;;;;;;;4990585;28;20044;-68
2022/01/22 12:19:50;;;;;;;19.95;3.58;;;;;;;;;;4988320;28;20023;-67
2022/01/22 12:22:32;;;;;;;22.05;4.10;;;;;;;;;;5005269;28;20026;-68
2022/01/22 12:25:01;;;;;;;28.27;4.03;;;;;;;;;;4989502;28;20120;-68
2022/01/22 12:27:46;;;;;;;23.75;4.47;;;;;;;;;;4993945;28;20034;-68
2022/01/22 12:30:12;;;;;;;17.77;5.57;;;;;;;;;;4978494;28;20072;-68
2022/01/22 12:32:44;;;;;;;16.33;5.80;;;;;;;;;;4994702;28;20121;-68
2022/01/22 12:35:12;;;;;;;15.13;5.65;;;;;;;;;;5004386;28;20311;-68
2022/01/22 12:37:42;;;;;;;18.08;6.18;;;;;;;;;;4990041;28;20030;-67
2022/01/22 12:40:08;;;;;;;17.33;6.05;;;;;;;;;;4976673;28;20055;-68
2022/01/22 12:43:05;;;;;;;19.48;6.63;;;;;;;;;;4990110;28;20064;-67
2022/01/22 12:45:31;;;;;;;26.20;6.60;;;;;;;;;;4994210;28;21878;-68
2022/01/22 12:47:57;;;;;;;19.00;6.95;;;;;;;;;;4990067;28;20034;-68
2022/01/22 12:50:26;;;;;;;19.65;6.35;;;;;;;;;;5003621;28;20282;-68
2022/01/22 12:52:51;;;;;;;19.20;6.85;;;;;;;;;;4989388;28;20025;-68
2022/01/22 12:55:25;;;;;;;19.95;6.28;;;;;;;;;;5004255;28;20030;-68
2022/01/22 12:57:50;;;;;;;17.75;5.85;;;;;;;;;;4987827;28;20041;-68
2022/01/22 13:00:20;;;;;;;15.85;6.93;;;;;;;;;;4989913;28;20527;-68
2022/01/22 13:02:46;;;;;;;22.15;6.40;;;;;;;;;;4989609;28;20030;-68
2022/01/22 13:05:13;;;;;;;23.17;6.78;;;;;;;;;;4965607;28;20036;-68
2022/01/22 13:07:40;;;;;;;19.05;7.25;;;;;;;;;;4989264;28;20040;-68
2022/01/22 13:10:07;;;;;;;19.45;7.03;;;;;;;;;;4989424;28;20065;-69
2022/01/22 13:12:34;;;;;;;18.15;7.20;;;;;;;;;;4989055;28;20045;-68
2022/01/22 13:14:59;;;;;;;20.15;7.15;;;;;;;;;;4965797;28;20442;-69
2022/01/22 13:17:29;;;;;;;28.13;8.02;;;;;;;;;;5004088;28;20201;-67
2022/01/22 13:19:55;;;;;;;23.58;7.32;;;;;;;;;;4988213;28;20034;-67
2022/01/22 13:22:28;;;;;;;26.90;7.90;;;;;;;;;;4988998;28;20382;-67
2022/01/22 13:25:01;;;;;;;17.77;7.10;;;;;;;;;;4988678;28;20104;-68
2022/01/22 13:27:26;;;;;;;20.30;7.00;;;;;;;;;;4988655;28;20466;-68
2022/01/22 13:29:54;;;;;;;19.88;7.00;;;;;;;;;;4988748;28;20062;-68
2022/01/22 13:32:47;;;;;;;17.58;6.97;;;;;;;;;;4988824;28;20050;-68
2022/01/22 13:49:08;;;;;;;29.60;7.50;;;;;;;;;;4987901;28;20029;-69
2022/01/22 13:51:34;;;;;;;21.02;7.72;;;;;;;;;;4991851;28;20442;-69
2022/01/22 13:54:01;;;;;;;26.88;7.65;;;;;;;;;;4988440;28;20501;-69
2022/01/22 13:56:43;;;;;;;30.42;7.10;;;;;;;;;;4992008;28;20034;-70
2022/01/22 13:59:26;;;;;;;29.05;6.93;;;;;;;;;;4988744;28;20513;-70
2022/01/22 14:02:13;;;;;;;26.55;7.10;;;;;;;;;;4987386;28;20045;-70
2022/01/22 14:04:47;;;;;;;17.10;6.88;;;;;;;;;;4987356;28;20026;-70
2022/01/22 14:07:16;;;;;;;26.95;6.95;;;;;;;;;;4987954;28;20580;-70
2022/01/22 14:10:14;;;;;;;20.00;6.75;;;;;;;;;;4988070;28;20034;-69
2022/01/22 14:12:41;;;;;;;20.90;7.40;;;;;;;;;;4982008;28;20042;-69
2022/01/22 14:15:11;;;;;;;25.08;7.50;;;;;;;;;;4988201;28;20386;-69
2022/01/22 14:17:53;;;;;;;18.17;6.75;;;;;;;;;;4987401;28;20036;-70
2022/01/22 14:20:22;;;;;;;29.52;6.95;;;;;;;;;;4988086;28;20084;-69
2022/01/22 14:22:51;;;;;;;18.75;6.85;;;;;;;;;;4987607;28;20097;-69
2022/01/22 14:25:17;;;;;;;25.95;7.65;;;;;;;;;;4959382;28;20029;-69
2022/01/22 14:27:42;;;;;;;23.75;7.47;;;;;;;;;;4991051;28;20032;-69
2022/01/22 14:30:08;;;;;;;25.40;7.15;;;;;;;;;;4987899;28;20441;-69
2022/01/22 14:32:35;;;;;;;21.05;6.97;;;;;;;;;;5001953;28;20038;-69
2022/01/22 14:35:01;;;;;;;25.88;7.32;;;;;;;;;;4987284;28;20022;-69
2022/01/22 14:37:30;;;;;;;22.38;6.55;;;;;;;;;;4987777;28;20048;-69
2022/01/22 14:45:25;;;;;;;22.30;7.55;;;;;;;;;;4987305;28;20298;-68
2022/01/22 14:47:57;;;;;;;23.38;7.55;;;;;;;;;;5001306;28;20034;-69
2022/01/22 14:50:23;;;;;;;24.20;7.97;;;;;;;;;;4986142;28;20032;-71
2022/01/22 14:52:53;;;;;;;29.95;7.88;;;;;;;;;;4987171;28;20155;-68
2022/01/22 14:55:18;;;;;;;24.88;7.22;;;;;;;;;;4986147;28;20414;-69
2022/01/22 14:57:44;;;;;;;17.90;6.90;;;;;;;;;;4987376;28;20706;-69
2022/01/22 15:00:14;;;;;;;20.85;7.00;;;;;;;;;;5002631;28;20450;-69
2022/01/22 15:02:39;;;;;;;22.95;6.90;;;;;;;;;;5002135;28;20057;-71
2022/01/22 15:05:07;;;;;;;17.35;5.45;;;;;;;;;;4986903;28;20124;-69
2022/01/22 15:07:35;;;;;;;10.82;3.38;;;;;;;;;;5001731;28;20053;-69
2022/01/22 15:10:02;;;;;;;14.65;3.58;;;;;;;;;;4991392;28;20021;-69
2022/01/22 15:12:28;;;;;;;10.85;2.80;;;;;;;;;;5003139;28;20029;-69
2022/01/22 15:14:53;;;;;;;18.83;3.40;;;;;;;;;;4987529;28;20048;-69
2022/01/22 15:19:44;;;;;;;15.98;3.45;;;;;;;;;;5001246;28;20026;-69
2022/01/22 15:22:11;;;;;;;17.88;3.92;;;;;;;;;;5001576;28;20368;-69
2022/01/22 15:24:37;;;;;;;16.27;4.18;;;;;;;;;;4987324;28;20041;-70
2022/01/22 15:27:03;;;;;;;17.05;3.65;;;;;;;;;;4991114;28;20037;-70
2022/01/22 15:29:29;;;;;;;8.45;3.00;;;;;;;;;;4974541;28;20123;-70
2022/01/22 15:36:59;;;;;;;10.77;3.35;;;;;;;;;;4986581;28;20120;-70
2022/01/22 15:39:25;;;;;;;9.75;3.10;;;;;;;;;;4987056;28;20023;-70
2022/01/22 15:41:51;;;;;;;9.48;2.90;;;;;;;;;;4975378;28;20033;-69
2022/01/22 15:44:16;;;;;;;16.60;3.72;;;;;;;;;;5000952;28;20034;-69
2022/01/22 15:46:48;;;;;;;11.20;2.80;;;;;;;;;;4986679;28;20163;-69
2022/01/22 15:49:18;;;;;;;15.53;3.63;;;;;;;;;;5000692;28;20024;-70
2022/01/22 15:51:45;;;;;;;21.17;3.33;;;;;;;;;;4986231;28;20030;-69
2022/01/22 15:54:11;;;;;;;9.05;2.55;;;;;;;;;;4986625;28;20026;-69
2022/01/22 15:56:37;;;;;;;9.80;2.00;;;;;;;;;;4988233;28;22074;-69
2022/01/22 15:59:06;;;;;;;13.65;2.03;;;;;;;;;;4986814;28;20470;-70
2022/01/22 16:01:35;;;;;;;12.88;2.60;;;;;;;;;;4983760;28;20125;-70
2022/01/22 16:04:01;;;;;;;16.55;2.40;;;;;;;;;;4977592;28;20038;-69
2022/01/22 16:06:45;;;;;;;19.70;2.67;;;;;;;;;;4978385;28;20041;-69
2022/01/22 16:09:12;;;;;;;16.05;2.28;;;;;;;;;;4995165;28;20770;-69
2022/01/22 16:11:38;;;;;;;18.65;1.70;;;;;;;;;;4982110;28;20087;-68
2022/01/22 16:14:04;;;;;;;11.43;1.58;;;;;;;;;;4996603;28;20022;-69
2022/01/22 16:16:36;;;;;;;9.13;1.80;;;;;;;;;;4996120;28;20100;-68
2022/01/22 16:19:02;;;;;;;16.90;1.98;;;;;;;;;;4981419;28;20382;-69
2022/01/22 16:21:27;;;;;;;11.18;1.60;;;;;;;;;;4982018;28;20041;-69
2022/01/22 16:23:53;;;;;;;9.93;1.73;;;;;;;;;;4982243;28;21928;-69
2022/01/22 16:26:18;;;;;;;9.45;1.60;;;;;;;;;;4981870;28;20194;-70
2022/01/22 16:28:44;;;;;;;21.60;2.40;;;;;;;;;;4996129;28;20132;-69
2022/01/22 16:31:09;;;;;;;10.23;1.52;;;;;;;;;;4982262;28;20145;-68
2022/01/22 16:33:34;;;;;;;21.65;3.15;;;;;;;;;;4987380;28;20034;-70
2022/01/22 16:36:02;;;;;;;12.05;1.60;;;;;;;;;;4994365;28;20034;-70